^^
Station Historical Data
Daily Summary for July 16, 2017 Units:  Metric    English   Both
« Previous Day
Next Day »
Daily Weekly Monthly Yearly Custom
  High: Low: Average:
Temperature: 13.5 °C 3.8 °C 8.4 °C
Dew Point: 5.6 °C -3.1 °C 0.4 °C
Humidity: 87% 41% 59%
Wind Speed: 30.6km/h 0km/h 12.4km/h
Wind Gust: 37km/h - -
Wind- - SSE
Pressure: 1030 hPa 1023.2 hPa -
Precipitation: 0 mm    
Historical Graphs
 
 
Tabular Data for July 16, 2017
Time Temperature Dew Point Pressure Wind Wind Speed Wind Gust Humidity Rainfall Rate (Hourly) solar Conditions
05:15 3.8 °C 1.3 °C 1023.2 hPa Calm     84% 0 mm 0.0 W/m2
05:20 3.8 °C 1.5 °C 1023.2 hPa Calm     85% 0 mm 0.0 W/m2
05:30 3.9 °C 1.8 °C 1023.2 hPa Calm     86% 0 mm 0.0 W/m2
05:35 3.9 °C 1.8 °C 1023.2 hPa Calm     86% 0 mm 0.0 W/m2
05:40 3.9 °C 1.8 °C 1023.6 hPa Calm     86% 0 mm 0.0 W/m2
05:46 3.9 °C 1.8 °C 1023.6 hPa Calm     86% 0 mm 0.0 W/m2
05:51 4 °C 1.7 °C 1023.9 hPa Calm     85% 0 mm 0.0 W/m2
06:01 3.8 °C 1.5 °C 1023.9 hPa Calm     85% 0 mm 0.0 W/m2
06:06 3.9 °C 1.8 °C 1024.3 hPa Calm     86% 0 mm 0.0 W/m2
06:12 4 °C 1.9 °C 1024.3 hPa Calm     86% 0 mm 0.0 W/m2
06:17 4.1 °C 2 °C 1024.3 hPa Calm     86% 0 mm 0.0 W/m2
06:23 4.3 °C 2.2 °C 1024.3 hPa Calm     86% 0 mm 0.0 W/m2
06:28 4.5 °C 2.5 °C 1024.6 hPa Calm     87% 0 mm 0.0 W/m2
06:38 4.9 °C 2.8 °C 1024.6 hPa Calm   4.8 km/h 86% 0 mm 0.0 W/m2
06:49 5.1 °C 2.6 °C 1024.9 hPa Calm     84% 0 mm 9.0 W/m2
06:52 5.1 °C 2.8 °C 1024.9 hPa Calm     85% 0 mm 11.0 W/m2
07:07 5.4 °C 2.9 °C 1024.9 hPa Calm     84% 0 mm 19.0 W/m2
07:16 5.8 °C 3.5 °C 1025.3 hPa SW 9.7 km/h 14.5 km/h 85% 0 mm 40.0 W/m2
07:25 6.7 °C 3.8 °C 1025.3 hPa SW 13 km/h 16.1 km/h 82% 0 mm 47.0 W/m2
07:34 7.2 °C 4.2 °C 1025.6 hPa SW 16.3 km/h 19.3 km/h 81% 0 mm 127.0 W/m2
09:28 8.5 °C 5.1 °C 1027.3 hPa SW 16.3 km/h 25.7 km/h 79% 0 mm 216.0 W/m2
09:39 8.9 °C 5.6 °C 1027.3 hPa SSW 30.6 km/h 37 km/h 80% 0 mm 192.0 W/m2
09:55 8.1 °C 5 °C 1027.3 hPa South 22.7 km/h 30.6 km/h 81% 0 mm 274.0 W/m2
10:38 9.8 °C 4.2 °C 1027.7 hPa South 24.1 km/h 30.6 km/h 68% 0 mm 573.0 W/m2
10:49 10 °C 4.4 °C 1027.3 hPa South 19.5 km/h 32.2 km/h 68% 0 mm 413.0 W/m2
11:00 10.4 °C 4.3 °C 1027.3 hPa SSE 14.3 km/h 25.7 km/h 66% 0 mm 624.0 W/m2
11:14 10.6 °C 4.1 °C 1027 hPa SSE 16.3 km/h 19.3 km/h 64% 0 mm 747.0 W/m2
11:23 10.8 °C 3.6 °C 1027 hPa SSE 19.5 km/h 22.5 km/h 61% 0 mm 327.0 W/m2
11:32 11.1 °C 3.6 °C 1027 hPa SSE 22.7 km/h 25.7 km/h 60% 0 mm 250.0 W/m2
11:40 11 °C 3.3 °C 1026.6 hPa SSE 17.7 km/h 19.3 km/h 59% 0 mm 281.0 W/m2
11:50 11.3 °C 3.3 °C 1026.6 hPa SSE 11.1 km/h 20.9 km/h 58% 0 mm 251.0 W/m2
12:01 11.9 °C 3.1 °C 1026.6 hPa SSE 13 km/h 19.3 km/h 55% 0 mm 663.0 W/m2
12:06 11.9 °C 2.6 °C 1026.6 hPa SSE 16.3 km/h 22.5 km/h 53% 0 mm 680.0 W/m2
12:11 12.1 °C 2.8 °C 1026.3 hPa SSE 24.1 km/h 27.4 km/h 53% 0 mm 659.0 W/m2
12:55 12.9 °C 2.2 °C 1025.6 hPa SSE 24.1 km/h 29 km/h 48% 0 mm 638.0 W/m2
13:05 12.9 °C 2.2 °C 1025.6 hPa SSE 16.3 km/h 25.7 km/h 48% 0 mm 606.0 W/m2
13:15 12.9 °C 2.2 °C 1025.6 hPa SSE 22.7 km/h 25.7 km/h 48% 0 mm 499.0 W/m2
13:52 13 °C 1.9 °C 1025.6 hPa SSE 11.1 km/h 19.3 km/h 47% 0 mm 246.0 W/m2
15:23 13.5 °C 1.2 °C 1025.6 hPa SSE 16.3 km/h 24.1 km/h 43% 0 mm 250.0 W/m2
15:38 13.5 °C 0.8 °C 1025.6 hPa SSE 16.3 km/h 20.9 km/h 42% 0 mm 95.0 W/m2
15:46 13 °C 0.4 °C 1025.6 hPa SSE 13 km/h 17.7 km/h 42% 0 mm 70.0 W/m2
15:54 12.9 °C 0 °C 1025.6 hPa SSE 9.7 km/h 19.3 km/h 41% 0 mm 72.0 W/m2
16:03 12.8 °C 0.2 °C 1026 hPa SSE 14.3 km/h 20.9 km/h 42% 0 mm 195.0 W/m2
16:14 12.9 °C 0 °C 1026 hPa SSE 17.7 km/h 22.5 km/h 41% 0 mm 104.0 W/m2
16:24 12.8 °C -0.1 °C 1026.3 hPa SSE 17.7 km/h 20.9 km/h 41% 0 mm 97.0 W/m2
16:36 12.7 °C -0.2 °C 1026.3 hPa SSE 7.9 km/h 16.1 km/h 41% 0 mm 60.0 W/m2
16:47 12.5 °C -0.1 °C 1026.6 hPa SSE 11.1 km/h 12.9 km/h 42% 0 mm 33.0 W/m2
17:29 11.7 °C -0.5 °C 1027 hPa SSE 7.9 km/h 14.5 km/h 43% 0 mm 0.0 W/m2
17:44 11.3 °C -0.5 °C 1027.3 hPa SSE 11.1 km/h 14.5 km/h 44% 0 mm 0.0 W/m2
18:10 10.8 °C -0.4 °C 1027.3 hPa SSE 9.7 km/h 11.3 km/h 46% 0 mm 0.0 W/m2
18:25 10.4 °C -0.1 °C 1027.3 hPa SSE 9.7 km/h 12.9 km/h 48% 0 mm 0.0 W/m2
19:05 9.7 °C -0.5 °C 1028 hPa SSE 7.9 km/h 9.7 km/h 49% 0 mm 0.0 W/m2
19:21 9.1 °C -0.8 °C 1028.3 hPa SSE 7.9 km/h 8 km/h 50% 0 mm 0.0 W/m2
19:36 8.8 °C -0.5 °C 1028.7 hPa SSE 11.1 km/h 11.3 km/h 52% 0 mm 0.0 W/m2
19:51 8.9 °C -0.7 °C 1029 hPa SSE 11.1 km/h 14.5 km/h 51% 0 mm 0.0 W/m2
20:23 8.4 °C -1.2 °C 1029.3 hPa SSE 9.7 km/h 14.5 km/h 51% 0 mm 0.0 W/m2
20:38 8.3 °C -1.2 °C 1029.3 hPa SSE 11.1 km/h 14.5 km/h 51% 0 mm 0.0 W/m2
20:52 8.1 °C -1.4 °C 1029.7 hPa SSE 14.3 km/h 16.1 km/h 51% 0 mm 0.0 W/m2
21:04 8.1 °C -1.4 °C 1029.7 hPa SSE 20.9 km/h 24.1 km/h 51% 0 mm 0.0 W/m2
21:12 8.1 °C -1.7 °C 1029.7 hPa SSE 16.3 km/h 19.3 km/h 50% 0 mm 0.0 W/m2
21:18 8.1 °C -1.7 °C 1029.7 hPa SSE 16.3 km/h 24.1 km/h 50% 0 mm 0.0 W/m2
21:24 7.9 °C -1.9 °C 1029.7 hPa SSE 14.3 km/h 16.1 km/h 50% 0 mm 0.0 W/m2
21:32 7.8 °C -2 °C 1029.7 hPa SSE 11.1 km/h 17.7 km/h 50% 0 mm 0.0 W/m2
21:37 7.8 °C -2 °C 1030 hPa SSE 13 km/h 17.7 km/h 50% 0 mm 0.0 W/m2
21:42 7.7 °C -1.8 °C 1030 hPa SSE 16.3 km/h 16.3 km/h 51% 0 mm 0.0 W/m2
21:52 7.7 °C -1.8 °C 1030 hPa SSE 11.1 km/h 17.7 km/h 51% 0 mm 0.0 W/m2
22:07 7.7 °C -2.3 °C 1030 hPa SSE 17.7 km/h 20.9 km/h 49% 0 mm 0.0 W/m2
22:17 7.7 °C -2.3 °C 1030 hPa SSE 16.3 km/h 24.1 km/h 49% 0 mm 0.0 W/m2
22:22 7.7 °C -2.3 °C 1030 hPa SSE 13 km/h 16.1 km/h 49% 0 mm 0.0 W/m2
22:27 7.7 °C -2.3 °C 1030 hPa SSE 14.3 km/h 19.3 km/h 49% 0 mm 0.0 W/m2
22:32 7.8 °C -2.3 °C 1030 hPa SSE 9.7 km/h 17.7 km/h 49% 0 mm 0.0 W/m2
22:42 7.7 °C -2.6 °C 1030 hPa SSE 14.3 km/h 20.9 km/h 48% 0 mm 0.0 W/m2
22:47 7.7 °C -2.6 °C 1030 hPa SSE 14.3 km/h 20.9 km/h 48% 0 mm 0.0 W/m2
22:52 7.6 °C -2.7 °C 1029.7 hPa SSE 17.7 km/h 24.1 km/h 48% 0 mm 0.0 W/m2
22:57 7.6 °C -2.7 °C 1029.7 hPa SSE 17.7 km/h 17.7 km/h 48% 0 mm 0.0 W/m2
23:02 7.6 °C -2.4 °C 1029.7 hPa SSE 19.5 km/h 20.9 km/h 49% 0 mm 0.0 W/m2
23:07 7.4 °C -2.6 °C 1029.7 hPa SSE 14.3 km/h 22.5 km/h 49% 0 mm 0.0 W/m2
23:12 7.4 °C -2.6 °C 1029.7 hPa SSE 19.5 km/h 25.7 km/h 49% 0 mm 0.0 W/m2
23:17 7.3 °C -2.7 °C 1029.7 hPa SSE 20.9 km/h 20.9 km/h 49% 0 mm 0.0 W/m2
23:22 7.2 °C -2.8 °C 1029.7 hPa SSE 16.3 km/h 24.1 km/h 49% 0 mm 0.0 W/m2
23:27 7.3 °C -2.7 °C 1029.7 hPa SSE 13 km/h 24.1 km/h 49% 0 mm 0.0 W/m2
23:32 7.3 °C -2.7 °C 1029.7 hPa SSE 25.9 km/h 25.9 km/h 49% 0 mm 0.0 W/m2
23:37 7.2 °C -3.1 °C 1029.7 hPa SE 16.3 km/h 25.7 km/h 48% 0 mm 0.0 W/m2
23:42 7.2 °C -3.1 °C 1029.7 hPa SE 19.5 km/h 22.5 km/h 48% 0 mm 0.0 W/m2
23:52 7.1 °C -2.9 °C 1029.7 hPa SE 20.9 km/h 22.5 km/h 49% 0 mm 0.0 W/m2
Canyon Roadhouse, Fishriver Canyon, Namibia
Compliments of Weather Underground - 2 mb